Time;durP1;ratioP1;P1;durP2;ratioP2;P2;SDS_P1;SDS_P2;PMS_P1;PMS_P2;Temp;Humidity;BMP_temperature;BMP_pressure;BME280_temperature;BME280_humidity;BME280_pressure;Samples;Min_cycle;Max_cycle;Signal;HPM_P1;HPM_P2
2021/06/14 00:01:53;;;;;;;10.40;5.00;;;;;;;;;;4950749;28;20707;-76
2021/06/14 00:04:19;;;;;;;7.78;4.10;;;;;;;;;;4958274;28;20472;-77
2021/06/14 00:06:46;;;;;;;7.18;4.03;;;;;;;;;;4958052;28;20066;-77
2021/06/14 00:09:17;;;;;;;6.85;3.92;;;;;;;;;;4944639;28;20066;-76
2021/06/14 00:11:43;;;;;;;7.68;4.10;;;;;;;;;;4950069;28;20074;-76
2021/06/14 00:14:10;;;;;;;6.78;4.30;;;;;;;;;;4956046;28;20027;-77
2021/06/14 00:16:36;;;;;;;8.25;4.53;;;;;;;;;;4953203;28;20065;-77
2021/06/14 00:19:04;;;;;;;7.10;4.00;;;;;;;;;;4956580;28;20530;-77
2021/06/14 00:21:31;;;;;;;6.82;4.20;;;;;;;;;;4942816;28;21267;-76
2021/06/14 00:23:57;;;;;;;7.32;4.10;;;;;;;;;;4950901;28;20069;-77
2021/06/14 00:26:24;;;;;;;6.30;3.85;;;;;;;;;;4951496;28;20055;-77
2021/06/14 00:28:50;;;;;;;6.40;3.70;;;;;;;;;;4958400;28;20086;-76
2021/06/14 00:31:16;;;;;;;7.20;3.78;;;;;;;;;;4956422;28;20054;-77
2021/06/14 00:33:43;;;;;;;7.15;4.00;;;;;;;;;;4952344;28;20061;-77
2021/06/14 00:36:09;;;;;;;7.28;3.83;;;;;;;;;;4949394;28;20050;-77
2021/06/14 00:38:37;;;;;;;9.05;4.55;;;;;;;;;;4949490;28;20488;-77
2021/06/14 00:41:04;;;;;;;7.15;4.10;;;;;;;;;;4942593;28;20070;-77
2021/06/14 00:43:32;;;;;;;6.43;3.63;;;;;;;;;;4942738;28;20054;-77
2021/06/14 00:45:58;;;;;;;7.50;4.13;;;;;;;;;;4952489;28;20054;-76
2021/06/14 00:48:25;;;;;;;6.30;3.95;;;;;;;;;;4950945;28;20055;-77
2021/06/14 00:50:53;;;;;;;7.50;3.88;;;;;;;;;;4949386;28;20112;-78
2021/06/14 00:53:22;;;;;;;7.30;3.30;;;;;;;;;;4938500;28;20058;-77
2021/06/14 00:55:48;;;;;;;6.68;3.55;;;;;;;;;;4949777;28;20075;-77
2021/06/14 00:58:15;;;;;;;5.95;3.65;;;;;;;;;;4946203;28;20071;-78
2021/06/14 01:00:42;;;;;;;5.82;3.22;;;;;;;;;;4929730;28;21157;-78
2021/06/14 01:03:10;;;;;;;6.60;3.70;;;;;;;;;;4930392;28;20051;-77
2021/06/14 01:05:42;;;;;;;7.72;3.60;;;;;;;;;;4942175;28;20059;-78
2021/06/14 01:08:09;;;;;;;5.75;3.50;;;;;;;;;;4950115;28;20559;-78
2021/06/14 01:10:37;;;;;;;4.82;3.30;;;;;;;;;;4952667;28;20081;-77
2021/06/14 01:13:22;;;;;;;6.22;3.33;;;;;;;;;;4951366;28;20058;-77
2021/06/14 01:16:04;;;;;;;5.10;2.97;;;;;;;;;;4954139;28;20059;-77
2021/06/14 01:18:57;;;;;;;5.68;2.92;;;;;;;;;;4919219;28;21234;-78
2021/06/14 01:21:27;;;;;;;5.65;3.42;;;;;;;;;;4910274;28;20063;-77
2021/06/14 01:24:11;;;;;;;5.60;3.28;;;;;;;;;;4946006;28;20467;-77
2021/06/14 01:26:42;;;;;;;5.70;3.00;;;;;;;;;;4951708;28;20631;-77
2021/06/14 01:29:08;;;;;;;;;;;;;;;;;;4947876;28;20417;-78
2021/06/14 01:31:36;;;;;;;5.82;3.15;;;;;;;;;;4949197;28;19958;-78
2021/06/14 01:34:03;;;;;;;4.50;3.08;;;;;;;;;;4948527;28;20062;-77
2021/06/14 01:36:33;;;;;;;5.47;2.95;;;;;;;;;;4942092;28;20393;-77
2021/06/14 01:39:01;;;;;;;5.50;2.95;;;;;;;;;;4929882;28;20055;-77
2021/06/14 01:41:29;;;;;;;5.60;3.08;;;;;;;;;;4936340;28;20162;-76
2021/06/14 01:43:56;;;;;;;5.10;2.95;;;;;;;;;;4949224;28;20130;-77
2021/06/14 01:46:24;;;;;;;3.97;2.63;;;;;;;;;;4953909;28;20066;-77
2021/06/14 01:48:51;;;;;;;6.78;3.13;;;;;;;;;;4948372;28;20055;-77
2021/06/14 01:51:19;;;;;;;4.57;3.00;;;;;;;;;;4937654;28;20031;-77
2021/06/14 01:54:02;;;;;;;5.85;2.88;;;;;;;;;;4948376;28;20563;-77
2021/06/14 01:56:33;;;;;;;5.63;2.90;;;;;;;;;;4949582;28;21310;-76
2021/06/14 01:59:00;;;;;;;4.50;2.88;;;;;;;;;;4941544;28;20129;-77
2021/06/14 02:01:28;;;;;;;5.53;2.83;;;;;;;;;;4958179;28;20055;-77
2021/06/14 02:03:56;;;;;;;4.10;2.72;;;;;;;;;;4959119;28;20058;-78
2021/06/14 02:06:23;;;;;;;3.88;2.80;;;;;;;;;;4948955;28;20063;-77
2021/06/14 02:08:50;;;;;;;4.18;2.83;;;;;;;;;;4951613;28;20058;-77
2021/06/14 02:11:18;;;;;;;5.05;2.97;;;;;;;;;;4949362;28;20055;-77
2021/06/14 02:13:44;;;;;;;4.45;2.70;;;;;;;;;;4928781;28;20056;-76
2021/06/14 02:16:12;;;;;;;3.45;2.42;;;;;;;;;;4929729;28;20059;-76
2021/06/14 02:18:38;;;;;;;6.55;2.90;;;;;;;;;;4927033;28;20452;-77
2021/06/14 02:21:04;;;;;;;4.82;2.55;;;;;;;;;;4926496;28;20039;-75
2021/06/14 02:23:31;;;;;;;5.18;2.85;;;;;;;;;;4931882;28;20064;-76
2021/06/14 02:25:57;;;;;;;4.00;2.60;;;;;;;;;;4948393;28;20070;-77
2021/06/14 02:28:24;;;;;;;4.00;2.50;;;;;;;;;;4944361;28;20071;-77
2021/06/14 02:30:50;;;;;;;4.05;2.35;;;;;;;;;;4947406;28;20503;-77
2021/06/14 02:33:16;;;;;;;3.63;2.50;;;;;;;;;;4939335;28;20496;-77
2021/06/14 02:35:43;;;;;;;4.35;2.70;;;;;;;;;;4935992;28;20070;-77
2021/06/14 02:38:11;;;;;;;5.22;2.42;;;;;;;;;;4945071;28;20500;-77
2021/06/14 02:40:39;;;;;;;4.05;2.25;;;;;;;;;;4947639;28;20487;-77
2021/06/14 02:43:09;;;;;;;3.50;2.40;;;;;;;;;;4943649;28;20047;-76
2021/06/14 02:45:37;;;;;;;4.10;2.20;;;;;;;;;;4945626;28;20063;-77
2021/06/14 02:48:05;;;;;;;3.38;2.10;;;;;;;;;;4927758;28;20172;-77
2021/06/14 02:50:32;;;;;;;5.22;2.17;;;;;;;;;;4936134;28;22316;-77
2021/06/14 02:53:00;;;;;;;3.05;2.10;;;;;;;;;;4951018;28;20094;-77
2021/06/14 02:55:28;;;;;;;3.10;2.20;;;;;;;;;;4948074;28;20129;-77
2021/06/14 02:57:57;;;;;;;3.70;2.00;;;;;;;;;;4947148;28;20126;-77
2021/06/14 03:00:25;;;;;;;4.30;2.38;;;;;;;;;;4947263;28;22781;-77
2021/06/14 03:02:54;;;;;;;3.65;2.20;;;;;;;;;;4957680;28;20032;-78
2021/06/14 03:05:21;;;;;;;4.03;2.35;;;;;;;;;;4948475;28;20083;-77
2021/06/14 03:07:47;;;;;;;3.20;2.15;;;;;;;;;;4946792;28;20059;-77
2021/06/14 03:10:14;;;;;;;3.03;2.00;;;;;;;;;;4947246;28;20066;-77
2021/06/14 03:12:40;;;;;;;4.20;2.42;;;;;;;;;;4959354;28;20094;-76
2021/06/14 03:15:07;;;;;;;3.85;1.90;;;;;;;;;;4946458;28;20059;-77
2021/06/14 03:17:34;;;;;;;3.17;2.08;;;;;;;;;;4954809;28;20061;-77
2021/06/14 03:20:02;;;;;;;4.50;2.20;;;;;;;;;;4949321;28;20934;-75
2021/06/14 03:22:28;;;;;;;3.53;1.83;;;;;;;;;;4945849;28;20582;-76
2021/06/14 03:24:55;;;;;;;3.55;1.95;;;;;;;;;;4947937;28;20691;-77
2021/06/14 03:27:23;;;;;;;4.00;1.90;;;;;;;;;;4950550;28;20067;-77
2021/06/14 03:29:50;;;;;;;3.63;2.03;;;;;;;;;;4959783;28;20062;-77
2021/06/14 03:32:17;;;;;;;3.53;1.88;;;;;;;;;;4953535;28;20046;-78
2021/06/14 03:34:43;;;;;;;3.58;2.00;;;;;;;;;;4952809;28;20059;-77
2021/06/14 03:37:10;;;;;;;3.58;1.90;;;;;;;;;;4933359;28;20063;-77
2021/06/14 03:39:39;;;;;;;3.55;1.90;;;;;;;;;;4935774;28;20115;-77
2021/06/14 03:42:05;;;;;;;3.60;1.90;;;;;;;;;;4938019;28;20035;-77
2021/06/14 03:44:32;;;;;;;3.15;1.83;;;;;;;;;;4944722;28;20078;-77
2021/06/14 03:46:58;;;;;;;2.65;1.65;;;;;;;;;;4948709;28;20496;-77
2021/06/14 03:49:24;;;;;;;4.05;1.95;;;;;;;;;;4948985;28;20101;-77
2021/06/14 03:51:51;;;;;;;3.92;1.88;;;;;;;;;;4950370;28;20067;-77
2021/06/14 03:54:17;;;;;;;3.85;2.17;;;;;;;;;;4950283;28;20067;-77
2021/06/14 03:56:44;;;;;;;3.42;1.80;;;;;;;;;;4949114;28;20063;-77
2021/06/14 03:59:10;;;;;;;3.25;1.75;;;;;;;;;;4948445;28;20059;-77
2021/06/14 04:01:36;;;;;;;3.17;1.70;;;;;;;;;;4951146;28;20538;-76
2021/06/14 04:06:39;;;;;;;3.70;1.73;;;;;;;;;;4945374;28;20046;-76
2021/06/14 04:09:05;;;;;;;3.03;1.85;;;;;;;;;;4948112;28;20488;-77
2021/06/14 04:11:31;;;;;;;4.63;1.88;;;;;;;;;;4949508;28;20110;-77
2021/06/14 04:13:58;;;;;;;4.15;1.63;;;;;;;;;;4936636;28;20533;-79
2021/06/14 04:16:24;;;;;;;4.75;2.00;;;;;;;;;;4934734;28;20510;-77
2021/06/14 04:18:51;;;;;;;4.63;2.08;;;;;;;;;;4949914;28;20086;-77
2021/06/14 04:21:17;;;;;;;4.63;2.17;;;;;;;;;;4946974;28;20070;-77
2021/06/14 04:23:45;;;;;;;5.93;2.33;;;;;;;;;;4948379;28;20067;-78
2021/06/14 04:26:11;;;;;;;4.30;2.00;;;;;;;;;;4949273;28;20062;-77
2021/06/14 04:28:38;;;;;;;4.38;2.15;;;;;;;;;;4951926;28;20067;-77
2021/06/14 04:31:04;;;;;;;4.10;2.00;;;;;;;;;;4949071;28;20131;-77
2021/06/14 04:33:31;;;;;;;4.95;2.00;;;;;;;;;;4951128;28;20047;-78
2021/06/14 04:35:57;;;;;;;4.32;2.15;;;;;;;;;;4950161;28;20059;-77
2021/06/14 04:38:23;;;;;;;5.47;2.25;;;;;;;;;;4948750;28;20074;-77
2021/06/14 04:40:50;;;;;;;5.80;2.30;;;;;;;;;;4948693;28;20515;-77
2021/06/14 04:43:16;;;;;;;3.83;1.70;;;;;;;;;;4947369;28;20062;-77
2021/06/14 04:45:43;;;;;;;3.85;1.95;;;;;;;;;;4948342;28;20043;-78
2021/06/14 04:48:09;;;;;;;4.38;2.20;;;;;;;;;;4929836;28;20056;-78
2021/06/14 04:50:35;;;;;;;5.00;1.95;;;;;;;;;;4939047;28;20688;-76
2021/06/14 04:53:02;;;;;;;4.90;2.03;;;;;;;;;;4941362;28;20071;-77
2021/06/14 04:55:28;;;;;;;3.47;1.60;;;;;;;;;;4937101;28;20525;-77
2021/06/14 04:57:55;;;;;;;4.53;1.90;;;;;;;;;;4951088;28;20066;-78
2021/06/14 05:00:21;;;;;;;3.88;1.90;;;;;;;;;;4948661;28;20071;-77
2021/06/14 05:02:49;;;;;;;6.05;1.98;;;;;;;;;;4956977;28;20500;-78
2021/06/14 05:05:16;;;;;;;4.55;1.90;;;;;;;;;;4954386;28;20069;-76
2021/06/14 05:07:42;;;;;;;4.63;2.15;;;;;;;;;;4951249;28;20058;-78
2021/06/14 05:10:09;;;;;;;3.30;1.75;;;;;;;;;;4950940;28;20051;-76
2021/06/14 05:12:35;;;;;;;2.85;1.80;;;;;;;;;;4948909;28;20030;-77
2021/06/14 05:15:02;;;;;;;5.95;1.98;;;;;;;;;;4948042;28;20055;-75
2021/06/14 05:17:28;;;;;;;3.25;1.90;;;;;;;;;;4948814;28;20043;-76
2021/06/14 05:19:55;;;;;;;3.50;1.80;;;;;;;;;;4949391;28;20051;-76
2021/06/14 05:22:21;;;;;;;4.97;2.00;;;;;;;;;;4948714;28;20070;-77
2021/06/14 05:24:47;;;;;;;4.30;1.73;;;;;;;;;;4952551;28;20062;-77
2021/06/14 05:27:14;;;;;;;5.00;1.80;;;;;;;;;;4949391;28;20503;-77
2021/06/14 05:29:40;;;;;;;5.03;1.75;;;;;;;;;;4945771;28;20035;-76
2021/06/14 05:32:07;;;;;;;2.70;1.83;;;;;;;;;;4946544;28;20126;-76
2021/06/14 05:34:33;;;;;;;3.70;1.50;;;;;;;;;;4949358;28;20061;-77
2021/06/14 05:37:00;;;;;;;2.97;1.52;;;;;;;;;;4950531;28;20063;-77
2021/06/14 05:39:26;;;;;;;4.75;1.80;;;;;;;;;;4948058;28;20066;-77
2021/06/14 05:41:53;;;;;;;4.80;1.90;;;;;;;;;;4949006;28;20059;-76
2021/06/14 05:44:19;;;;;;;3.55;1.85;;;;;;;;;;4947003;28;20510;-76
2021/06/14 05:46:46;;;;;;;3.75;1.42;;;;;;;;;;4950702;28;20078;-76
2021/06/14 05:49:12;;;;;;;3.53;1.60;;;;;;;;;;4947610;28;20506;-76
2021/06/14 05:51:39;;;;;;;3.72;1.80;;;;;;;;;;4954614;28;20091;-76
2021/06/14 05:54:06;;;;;;;4.50;1.70;;;;;;;;;;4943002;28;20538;-75
2021/06/14 05:56:32;;;;;;;3.22;1.60;;;;;;;;;;4950552;28;20557;-76
2021/06/14 05:58:59;;;;;;;4.28;1.60;;;;;;;;;;4946741;28;20075;-75
2021/06/14 06:01:25;;;;;;;5.28;1.65;;;;;;;;;;4949640;28;20786;-76
2021/06/14 06:03:51;;;;;;;3.95;1.45;;;;;;;;;;4949641;28;20054;-76
2021/06/14 06:06:18;;;;;;;3.03;1.50;;;;;;;;;;4947208;28;20039;-76
2021/06/14 06:08:44;;;;;;;2.22;1.40;;;;;;;;;;4956676;28;20134;-76
2021/06/14 06:11:11;;;;;;;2.97;1.27;;;;;;;;;;4943528;28;20064;-77
2021/06/14 06:13:37;;;;;;;3.60;1.60;;;;;;;;;;4956964;28;20038;-77
2021/06/14 06:16:04;;;;;;;3.78;1.60;;;;;;;;;;4952259;28;20054;-76
2021/06/14 06:18:30;;;;;;;5.20;1.70;;;;;;;;;;4945549;28;20121;-76
2021/06/14 06:20:57;;;;;;;3.78;1.45;;;;;;;;;;4922113;28;20173;-77
2021/06/14 06:23:24;;;;;;;4.57;1.40;;;;;;;;;;4927114;28;20086;-77
2021/06/14 06:25:50;;;;;;;3.72;1.70;;;;;;;;;;4928712;28;20068;-76
2021/06/14 06:28:16;;;;;;;2.50;1.45;;;;;;;;;;4927423;28;20059;-76
2021/06/14 06:30:43;;;;;;;4.82;1.67;;;;;;;;;;4954084;28;20058;-76
2021/06/14 06:33:09;;;;;;;2.10;1.40;;;;;;;;;;4949924;28;20066;-78
2021/06/14 06:35:36;;;;;;;3.53;1.50;;;;;;;;;;4954038;28;20051;-76
2021/06/14 06:38:03;;;;;;;2.78;1.30;;;;;;;;;;4946441;28;20059;-76
2021/06/14 06:40:29;;;;;;;2.85;1.35;;;;;;;;;;4947181;28;20066;-76
2021/06/14 06:42:56;;;;;;;2.83;1.35;;;;;;;;;;4948603;28;20031;-76
2021/06/14 06:45:24;;;;;;;2.83;1.63;;;;;;;;;;4946817;28;20062;-76
2021/06/14 06:47:50;;;;;;;5.00;1.77;;;;;;;;;;4932088;29;20138;-77
2021/06/14 06:50:17;;;;;;;3.30;1.58;;;;;;;;;;4952536;28;20027;-76
2021/06/14 06:52:44;;;;;;;3.72;1.63;;;;;;;;;;4950048;28;20054;-76
2021/06/14 06:55:11;;;;;;;3.33;1.63;;;;;;;;;;4946359;28;20090;-76
2021/06/14 06:57:38;;;;;;;3.05;1.08;;;;;;;;;;4946644;28;20809;-76
2021/06/14 07:00:06;;;;;;;3.08;1.60;;;;;;;;;;4944521;28;20063;-76
2021/06/14 07:02:32;;;;;;;2.33;1.65;;;;;;;;;;4950061;28;21294;-76
2021/06/14 07:04:58;;;;;;;2.95;1.40;;;;;;;;;;4954748;28;20051;-76
2021/06/14 07:07:25;;;;;;;2.67;1.30;;;;;;;;;;4950955;28;20432;-76
2021/06/14 07:09:51;;;;;;;3.78;1.30;;;;;;;;;;4950256;28;20054;-76
2021/06/14 07:12:18;;;;;;;2.05;1.15;;;;;;;;;;4962488;28;20042;-75
2021/06/14 07:14:44;;;;;;;5.40;1.73;;;;;;;;;;4958425;28;20466;-75
2021/06/14 07:17:11;;;;;;;2.53;1.30;;;;;;;;;;4951944;28;20066;-75
2021/06/14 07:19:38;;;;;;;2.90;1.30;;;;;;;;;;4950474;28;20070;-76
2021/06/14 07:22:04;;;;;;;3.45;1.35;;;;;;;;;;4951210;28;20116;-75
2021/06/14 07:24:31;;;;;;;3.35;1.40;;;;;;;;;;4945861;28;20054;-76
2021/06/14 07:26:58;;;;;;;2.83;1.40;;;;;;;;;;4955154;28;20549;-76
2021/06/14 07:29:24;;;;;;;3.35;1.75;;;;;;;;;;4953110;28;20046;-77
2021/06/14 07:31:50;;;;;;;3.45;1.40;;;;;;;;;;4958859;28;20043;-76
2021/06/14 07:34:17;;;;;;;2.63;1.60;;;;;;;;;;4961636;28;20125;-75
2021/06/14 07:36:43;;;;;;;2.90;1.23;;;;;;;;;;4954634;28;20070;-75
2021/06/14 07:39:09;;;;;;;3.17;1.60;;;;;;;;;;4957424;28;20066;-75
2021/06/14 07:41:36;;;;;;;3.50;1.50;;;;;;;;;;4952872;28;20063;-75
2021/06/14 07:44:02;;;;;;;2.67;1.50;;;;;;;;;;4954731;28;20090;-76
2021/06/14 07:46:29;;;;;;;2.38;1.20;;;;;;;;;;4953937;28;20059;-78
2021/06/14 07:48:55;;;;;;;2.28;1.20;;;;;;;;;;4955298;28;20188;-77
2021/06/14 07:51:22;;;;;;;2.70;1.38;;;;;;;;;;4946801;28;20059;-77
2021/06/14 07:53:50;;;;;;;4.53;1.45;;;;;;;;;;4931373;28;20469;-76
2021/06/14 07:56:18;;;;;;;2.72;1.30;;;;;;;;;;4929576;28;20062;-75
2021/06/14 07:58:45;;;;;;;2.33;1.35;;;;;;;;;;4950790;28;20128;-74
2021/06/14 08:01:11;;;;;;;3.92;1.60;;;;;;;;;;4946886;28;20066;-75
2021/06/14 08:03:38;;;;;;;3.10;1.40;;;;;;;;;;4930113;28;20063;-75
2021/06/14 08:06:05;;;;;;;3.13;1.60;;;;;;;;;;4946744;28;20134;-76
2021/06/14 08:08:32;;;;;;;3.08;1.50;;;;;;;;;;4949335;28;20355;-75
2021/06/14 08:11:01;;;;;;;3.63;1.60;;;;;;;;;;4949803;28;20786;-74
2021/06/14 08:13:29;;;;;;;2.67;1.38;;;;;;;;;;4948469;28;20059;-75
2021/06/14 08:15:58;;;;;;;4.90;1.60;;;;;;;;;;4950860;28;20063;-74
2021/06/14 08:26:27;;;;;;;3.35;1.38;;;;;;;;;;4954160;28;20065;-75
2021/06/14 08:28:56;;;;;;;2.92;1.67;;;;;;;;;;4959153;28;20062;-75
2021/06/14 08:31:23;;;;;;;2.97;1.35;;;;;;;;;;4952433;28;20046;-76
2021/06/14 08:33:49;;;;;;;2.60;1.52;;;;;;;;;;4951337;28;20114;-74
2021/06/14 08:36:35;;;;;;;;;;;;;;;;;;;;;
2021/06/14 08:39:02;;;;;;;3.05;1.20;;;;;;;;;;4948943;28;20111;-75
2021/06/14 08:41:28;;;;;;;2.63;1.50;;;;;;;;;;4949401;28;20055;-75
2021/06/14 08:43:57;;;;;;;2.67;1.20;;;;;;;;;;4942565;28;20031;-75
2021/06/14 08:46:23;;;;;;;3.55;1.30;;;;;;;;;;4940761;28;20050;-75
2021/06/14 08:48:51;;;;;;;3.22;1.30;;;;;;;;;;4952760;28;20062;-75
2021/06/14 08:51:18;;;;;;;3.72;1.50;;;;;;;;;;4955442;28;20066;-75
2021/06/14 08:53:44;;;;;;;2.55;1.33;;;;;;;;;;4957720;28;20059;-76
2021/06/14 08:56:11;;;;;;;2.97;1.20;;;;;;;;;;4949339;28;20062;-76
2021/06/14 08:58:37;;;;;;;2.28;1.20;;;;;;;;;;4950313;28;20058;-76
2021/06/14 09:01:05;;;;;;;2.78;1.50;;;;;;;;;;4950529;28;20437;-76
2021/06/14 09:03:31;;;;;;;3.33;1.75;;;;;;;;;;4946574;28;21238;-76
2021/06/14 09:05:58;;;;;;;2.80;1.40;;;;;;;;;;4956853;28;20042;-76
2021/06/14 09:08:24;;;;;;;2.28;1.30;;;;;;;;;;4951615;28;20058;-76
2021/06/14 09:10:52;;;;;;;2.42;1.42;;;;;;;;;;4944622;28;20070;-76
2021/06/14 09:13:23;;;;;;;2.10;1.33;;;;;;;;;;4956897;28;20069;-75
2021/06/14 09:15:53;;;;;;;5.65;1.42;;;;;;;;;;4950039;28;20106;-77
2021/06/14 09:18:21;;;;;;;2.63;1.30;;;;;;;;;;4949045;28;20036;-76
2021/06/14 09:21:05;;;;;;;3.15;1.17;;;;;;;;;;4954720;28;20062;-76
2021/06/14 09:23:45;;;;;;;3.38;1.63;;;;;;;;;;4948693;28;20976;-76
2021/06/14 09:26:23;;;;;;;2.17;1.33;;;;;;;;;;4951247;28;20480;-76
2021/06/14 09:28:50;;;;;;;2.92;1.60;;;;;;;;;;4959645;28;20087;-76
2021/06/14 09:31:17;;;;;;;2.50;1.30;;;;;;;;;;4949154;28;20562;-76
2021/06/14 09:33:44;;;;;;;3.78;1.42;;;;;;;;;;4952475;28;20063;-75
2021/06/14 09:36:11;;;;;;;3.38;1.40;;;;;;;;;;4950401;28;20051;-76
2021/06/14 09:38:37;;;;;;;3.22;1.25;;;;;;;;;;4946860;28;20066;-76
2021/06/14 09:41:22;;;;;;;3.15;1.27;;;;;;;;;;4948138;28;20042;-75
2021/06/14 09:43:49;;;;;;;2.70;1.30;;;;;;;;;;4945190;28;20195;-77
2021/06/14 09:46:21;;;;;;;3.45;1.67;;;;;;;;;;4949963;28;20062;-74
2021/06/14 09:48:49;;;;;;;4.95;1.30;;;;;;;;;;4949755;28;20126;-76
2021/06/14 09:51:16;;;;;;;2.38;1.30;;;;;;;;;;4948135;28;20055;-76
2021/06/14 09:53:43;;;;;;;2.10;1.20;;;;;;;;;;4928734;28;20605;-76
2021/06/14 09:56:14;;;;;;;2.35;1.02;;;;;;;;;;4943916;28;20555;-75
2021/06/14 09:58:48;;;;;;;2.85;1.17;;;;;;;;;;4948587;28;20059;-75
2021/06/14 10:01:22;;;;;;;3.80;1.20;;;;;;;;;;4937277;28;20071;-76
2021/06/14 10:03:48;;;;;;;2.70;1.10;;;;;;;;;;4943622;28;20055;-75
2021/06/14 10:06:15;;;;;;;2.63;1.23;;;;;;;;;;4945504;28;20133;-76
2021/06/14 10:08:47;;;;;;;2.95;1.10;;;;;;;;;;4944094;28;20058;-75
2021/06/14 10:11:18;;;;;;;4.03;0.95;;;;;;;;;;4944298;28;20521;-76
2021/06/14 10:13:46;;;;;;;1.98;1.10;;;;;;;;;;4945435;28;20059;-75
2021/06/14 10:16:13;;;;;;;1.38;1.05;;;;;;;;;;4944460;28;20051;-76
2021/06/14 10:18:41;;;;;;;5.10;1.05;;;;;;;;;;4941067;28;20055;-76
2021/06/14 10:21:10;;;;;;;2.63;1.30;;;;;;;;;;4943956;28;20071;-74
2021/06/14 10:23:37;;;;;;;1.65;1.05;;;;;;;;;;4943560;28;20074;-74
2021/06/14 10:26:03;;;;;;;2.50;1.00;;;;;;;;;;4945520;28;20035;-74
2021/06/14 10:28:30;;;;;;;2.30;1.02;;;;;;;;;;4951448;28;20035;-73
2021/06/14 10:30:57;;;;;;;1.90;1.10;;;;;;;;;;4952305;28;20054;-75
2021/06/14 10:33:24;;;;;;;1.73;1.10;;;;;;;;;;4945273;28;20597;-74
2021/06/14 10:35:55;;;;;;;2.03;1.08;;;;;;;;;;4945941;28;20129;-75
2021/06/14 10:38:21;;;;;;;1.50;0.90;;;;;;;;;;4915054;28;20304;-75
2021/06/14 10:40:49;;;;;;;2.05;0.95;;;;;;;;;;4927969;28;20154;-74
2021/06/14 10:43:16;;;;;;;2.40;1.08;;;;;;;;;;4919823;28;20063;-73
2021/06/14 10:45:45;;;;;;;1.73;0.90;;;;;;;;;;4925883;28;20040;-74
2021/06/14 10:48:12;;;;;;;2.22;1.00;;;;;;;;;;4925607;28;20066;-75
2021/06/14 10:50:38;;;;;;;1.90;1.05;;;;;;;;;;4926177;28;20059;-75
2021/06/14 10:53:05;;;;;;;3.13;1.05;;;;;;;;;;4945991;28;20134;-74
2021/06/14 10:55:39;;;;;;;3.92;1.10;;;;;;;;;;4939899;28;20541;-75
2021/06/14 10:58:18;;;;;;;2.15;1.02;;;;;;;;;;4928024;28;20055;-75
2021/06/14 11:01:01;;;;;;;2.65;1.00;;;;;;;;;;4928737;28;20097;-75
2021/06/14 11:03:37;;;;;;;1.65;1.00;;;;;;;;;;4958771;28;20055;-75
2021/06/14 11:06:14;;;;;;;2.50;0.90;;;;;;;;;;4947415;28;20098;-74
2021/06/14 11:08:41;;;;;;;2.28;0.95;;;;;;;;;;4942349;28;21408;-75
2021/06/14 11:11:07;;;;;;;2.70;1.15;;;;;;;;;;4945872;28;20161;-75
2021/06/14 11:13:34;;;;;;;2.63;0.95;;;;;;;;;;4947220;28;20488;-74
2021/06/14 11:16:06;;;;;;;3.72;1.20;;;;;;;;;;4954520;28;20055;-75
2021/06/14 11:18:33;;;;;;;2.38;1.10;;;;;;;;;;4946439;28;20494;-75
2021/06/14 11:21:26;;;;;;;3.05;1.20;;;;;;;;;;4946097;28;20452;-75
2021/06/14 11:23:54;;;;;;;3.92;1.35;;;;;;;;;;4930386;28;20059;-75
2021/06/14 11:26:28;;;;;;;3.42;1.65;;;;;;;;;;4946138;28;20067;-75
2021/06/14 11:28:55;;;;;;;4.93;1.50;;;;;;;;;;4944869;28;20193;-75
2021/06/14 11:31:23;;;;;;;4.75;1.33;;;;;;;;;;4958173;28;20063;-74
2021/06/14 11:33:51;;;;;;;3.05;1.45;;;;;;;;;;4943805;28;20067;-75
2021/06/14 11:36:17;;;;;;;3.72;1.75;;;;;;;;;;4944529;28;20074;-75
2021/06/14 11:38:43;;;;;;;7.25;2.00;;;;;;;;;;4946868;28;20117;-75
2021/06/14 11:41:10;;;;;;;7.65;1.77;;;;;;;;;;4944337;28;20141;-76
2021/06/14 11:43:37;;;;;;;4.20;1.90;;;;;;;;;;4951676;28;20106;-75
2021/06/14 11:46:17;;;;;;;3.50;1.80;;;;;;;;;;4945728;28;20114;-75
2021/06/14 11:48:48;;;;;;;3.45;1.95;;;;;;;;;;4947293;28;21600;-75
2021/06/14 11:51:18;;;;;;;3.45;1.70;;;;;;;;;;4948723;28;20067;-75
2021/06/14 11:53:58;;;;;;;5.03;1.77;;;;;;;;;;4945794;28;20035;-75
2021/06/14 11:56:25;;;;;;;4.15;1.80;;;;;;;;;;4946469;28;20280;-74
2021/06/14 11:58:52;;;;;;;5.25;1.80;;;;;;;;;;4953942;28;20081;-75
2021/06/14 12:01:33;;;;;;;4.85;1.75;;;;;;;;;;4955590;28;20511;-77
2021/06/14 12:04:04;;;;;;;6.35;2.00;;;;;;;;;;4949278;28;20475;-75
2021/06/14 12:06:44;;;;;;;3.63;2.10;;;;;;;;;;4937171;28;20126;-74
2021/06/14 12:09:12;;;;;;;3.97;1.80;;;;;;;;;;4929866;28;20472;-74
2021/06/14 12:11:38;;;;;;;4.10;1.85;;;;;;;;;;4929306;28;20193;-75
2021/06/14 12:14:10;;;;;;;4.75;1.95;;;;;;;;;;4937571;28;20110;-75
2021/06/14 12:16:37;;;;;;;3.78;1.80;;;;;;;;;;4917680;28;20063;-75
2021/06/14 12:19:03;;;;;;;6.13;2.30;;;;;;;;;;4943932;28;20574;-75
2021/06/14 12:21:30;;;;;;;3.90;2.15;;;;;;;;;;4942843;28;20142;-75
2021/06/14 12:23:56;;;;;;;5.53;2.33;;;;;;;;;;4949505;28;20054;-75
2021/06/14 12:26:23;;;;;;;6.15;2.38;;;;;;;;;;4957893;28;20082;-75
2021/06/14 12:28:49;;;;;;;4.35;1.85;;;;;;;;;;4957525;28;20063;-75
2021/06/14 12:31:16;;;;;;;6.20;2.10;;;;;;;;;;4951079;28;20054;-75
2021/06/14 12:33:43;;;;;;;4.38;2.33;;;;;;;;;;4929451;28;20200;-75
2021/06/14 12:36:14;;;;;;;4.15;2.00;;;;;;;;;;4928801;28;20055;-75
2021/06/14 12:38:53;;;;;;;5.07;2.30;;;;;;;;;;4950620;28;20055;-75
2021/06/14 12:41:20;;;;;;;3.72;2.00;;;;;;;;;;4945256;28;20477;-75
2021/06/14 12:43:47;;;;;;;5.43;2.20;;;;;;;;;;4942299;28;20059;-74
2021/06/14 12:46:14;;;;;;;3.28;1.83;;;;;;;;;;4930645;28;20555;-74
2021/06/14 12:48:41;;;;;;;4.97;2.10;;;;;;;;;;4927331;28;20099;-74
2021/06/14 12:51:08;;;;;;;5.30;2.20;;;;;;;;;;4947060;28;20091;-75
2021/06/14 12:53:35;;;;;;;7.28;2.35;;;;;;;;;;4944539;28;20522;-75
2021/06/14 12:56:01;;;;;;;3.35;2.00;;;;;;;;;;4955049;28;20055;-76
2021/06/14 12:58:29;;;;;;;3.83;2.00;;;;;;;;;;4948712;28;20054;-75
2021/06/14 13:00:57;;;;;;;3.80;2.00;;;;;;;;;;4947013;28;20518;-75
2021/06/14 13:03:28;;;;;;;3.92;2.13;;;;;;;;;;4947854;28;20063;-75
2021/06/14 13:05:54;;;;;;;3.90;2.15;;;;;;;;;;4946443;28;20106;-75
2021/06/14 13:08:31;;;;;;;3.60;2.08;;;;;;;;;;4945807;28;20066;-75
2021/06/14 13:10:57;;;;;;;4.43;2.17;;;;;;;;;;4943532;28;20509;-75
2021/06/14 13:13:28;;;;;;;3.22;2.05;;;;;;;;;;4945408;28;20055;-75
2021/06/14 13:16:05;;;;;;;6.40;2.50;;;;;;;;;;4945084;28;20067;-75
2021/06/14 13:18:32;;;;;;;3.63;2.13;;;;;;;;;;4948067;28;20090;-75
2021/06/14 13:21:03;;;;;;;6.90;2.47;;;;;;;;;;4948032;28;20067;-76
2021/06/14 13:23:30;;;;;;;4.28;2.40;;;;;;;;;;4944875;28;20653;-76
2021/06/14 13:25:57;;;;;;;4.88;2.22;;;;;;;;;;4946087;28;20074;-75
2021/06/14 13:28:30;;;;;;;4.30;2.47;;;;;;;;;;4947049;28;20063;-76
2021/06/14 13:31:04;;;;;;;4.35;2.40;;;;;;;;;;4943637;28;20456;-74
2021/06/14 13:33:42;;;;;;;3.08;2.30;;;;;;;;;;4949325;28;20605;-75
2021/06/14 13:36:09;;;;;;;9.45;2.83;;;;;;;;;;4945553;28;20067;-75
2021/06/14 13:38:36;;;;;;;5.57;2.20;;;;;;;;;;4946082;28;20063;-75
2021/06/14 13:41:05;;;;;;;5.28;2.38;;;;;;;;;;4940809;28;20074;-75
2021/06/14 13:43:32;;;;;;;3.08;2.30;;;;;;;;;;4951147;28;20087;-75
2021/06/14 13:45:59;;;;;;;4.60;2.47;;;;;;;;;;4943712;28;20592;-75
2021/06/14 13:48:26;;;;;;;6.97;2.53;;;;;;;;;;4951629;28;20063;-74
2021/06/14 13:50:57;;;;;;;8.30;2.63;;;;;;;;;;4947949;28;20110;-76
2021/06/14 13:53:27;;;;;;;4.70;2.50;;;;;;;;;;4943634;28;20066;-75
2021/06/14 13:55:53;;;;;;;6.88;2.90;;;;;;;;;;4944479;28;20511;-76
2021/06/14 13:58:20;;;;;;;6.07;2.60;;;;;;;;;;4947104;28;20118;-75
2021/06/14 14:00:46;;;;;;;4.38;2.72;;;;;;;;;;4945560;28;20059;-75
2021/06/14 14:03:13;;;;;;;4.95;2.92;;;;;;;;;;4944427;28;20074;-75
2021/06/14 14:05:39;;;;;;;5.07;2.58;;;;;;;;;;4944476;28;20173;-76
2021/06/14 14:08:06;;;;;;;5.45;2.78;;;;;;;;;;4946539;28;20117;-74
2021/06/14 14:10:33;;;;;;;5.13;2.47;;;;;;;;;;4944838;28;20062;-75
2021/06/14 14:12:59;;;;;;;7.43;2.60;;;;;;;;;;4945219;28;20039;-74
2021/06/14 14:15:26;;;;;;;5.43;2.63;;;;;;;;;;4939306;28;20062;-74
2021/06/14 14:17:52;;;;;;;6.20;2.47;;;;;;;;;;4949208;28;20478;-75
2021/06/14 14:20:25;;;;;;;5.57;2.80;;;;;;;;;;4946418;28;20074;-75
2021/06/14 14:22:52;;;;;;;4.25;2.58;;;;;;;;;;4945458;28;20062;-76
2021/06/14 14:25:18;;;;;;;4.38;2.58;;;;;;;;;;4945392;28;20140;-77
2021/06/14 14:27:45;;;;;;;6.05;2.53;;;;;;;;;;4946267;28;20034;-77
2021/06/14 14:30:12;;;;;;;4.80;2.70;;;;;;;;;;4942353;28;20625;-76
2021/06/14 14:32:39;;;;;;;3.45;2.40;;;;;;;;;;4945545;28;20055;-76
2021/06/14 14:35:08;;;;;;;4.65;2.60;;;;;;;;;;4945102;28;20122;-75
2021/06/14 14:37:34;;;;;;;3.85;2.53;;;;;;;;;;4942887;28;20605;-75
2021/06/14 14:40:02;;;;;;;5.13;2.80;;;;;;;;;;4945114;28;20067;-75
2021/06/14 14:42:28;;;;;;;5.90;2.67;;;;;;;;;;4940927;28;20114;-76
2021/06/14 14:44:55;;;;;;;3.47;2.88;;;;;;;;;;4944028;28;20074;-77
2021/06/14 14:47:21;;;;;;;7.13;2.80;;;;;;;;;;4944020;28;20404;-77
2021/06/14 14:49:48;;;;;;;4.25;2.80;;;;;;;;;;4945947;28;20070;-76
2021/06/14 14:52:14;;;;;;;5.15;3.00;;;;;;;;;;4949228;28;20467;-76
2021/06/14 14:54:41;;;;;;;6.07;3.00;;;;;;;;;;4945490;28;20122;-77
2021/06/14 14:57:08;;;;;;;4.57;2.67;;;;;;;;;;4942570;28;20063;-77
2021/06/14 14:59:34;;;;;;;4.55;2.55;;;;;;;;;;4946112;28;20078;-76